Time;durP1;ratioP1;P1;durP2;ratioP2;P2;SDS_P1;SDS_P2;PMS_P1;PMS_P2;Temp;Humidity;BMP_temperature;BMP_pressure;BME280_temperature;BME280_humidity;BME280_pressure;Samples;Min_cycle;Max_cycle;Signal;HPM_P1;HPM_P2
2023/04/26 00:01:09;;;;;;;;;;;;;;;;;;7366597;19;1866;-66
2023/04/26 00:03:39;;;;;;;;;;;;;;;;;;7367993;19;876;-66
2023/04/26 00:06:08;;;;;;;;;;;;;;;;;;7367922;19;831;-66
2023/04/26 00:08:36;;;;;;;;;;;;;;;;;;7366768;19;803;-67
2023/04/26 00:11:05;;;;;;;;;;;;;;;;;;7367179;19;1365;-66
2023/04/26 00:13:33;;;;;;;;;;;;;;;;;;7367717;19;883;-66
2023/04/26 00:16:01;;;;;;;;;;;;;;;;;;7367438;19;851;-67
2023/04/26 00:18:30;;;;;;;;;;;;;;;;;;7366306;19;820;-66
2023/04/26 00:20:58;;;;;;;;;;;;;;;;;;7366174;19;1840;-64
2023/04/26 00:23:26;;;;;;;;;;;;;;;;;;7364352;19;1347;-65
2023/04/26 00:25:54;;;;;;;;;;;;;;;;;;7366639;19;775;-66
2023/04/26 00:28:22;;;;;;;;;;;;;;;;;;7365695;19;813;-66
2023/04/26 00:30:51;;;;;;;;;;;;;;;;;;7365070;19;826;-65
2023/04/26 00:33:19;;;;;;;;;;;;;;;;;;7363754;19;1278;-66
2023/04/26 00:35:47;;;;;;;;;;;;;;;;;;7365109;19;848;-67
2023/04/26 00:38:16;;;;;;;;;;;;;;;;;;7365080;19;838;-67
2023/04/26 00:40:44;;;;;;;;;;;;;;;;;;7364661;19;1853;-67
2023/04/26 00:43:12;;;;;;;;;;;;;;;;;;7364225;19;1333;-67
2023/04/26 00:45:40;;;;;;;;;;;;;;;;;;7366032;19;857;-67
2023/04/26 00:48:08;;;;;;;;;;;;;;;;;;7362107;19;861;-67
2023/04/26 00:50:37;;;;;;;;;;;;;;;;;;7366098;19;807;-67
2023/04/26 00:53:06;;;;;;;;;;;;;;;;;;7362160;19;1251;-66
2023/04/26 00:55:34;;;;;;;;;;;;;;;;;;7365086;19;849;-67
2023/04/26 00:58:03;;;;;;;;;;;;;;;;;;7363908;19;802;-67
2023/04/26 01:00:31;;;;;;;;;;;;;;;;;;7364131;19;819;-67
2023/04/26 01:02:59;;;;;;;;;;;;;;;;;;7362590;19;1838;-67
2023/04/26 01:05:28;;;;;;;;;;;;;;;;;;7366370;19;822;-66
2023/04/26 01:07:56;;;;;;;;;;;;;;;;;;7364248;19;816;-66
2023/04/26 01:10:25;;;;;;;;;;;;;;;;;;7364533;19;824;-67
2023/04/26 01:12:53;;;;;;;;;;;;;;;;;;7361806;19;1267;-67
2023/04/26 01:15:21;;;;;;;;;;;;;;;;;;7365878;19;795;-67
2023/04/26 01:17:51;;;;;;;;;;;;;;;;;;7365244;19;803;-67
2023/04/26 01:20:20;;;;;;;;;;;;;;;;;;7365201;19;826;-67
2023/04/26 01:22:48;;;;;;;;;;;;;;;;;;7361062;19;1835;-67
2023/04/26 01:25:17;;;;;;;;;;;;;;;;;;7365280;19;814;-66
2023/04/26 01:27:45;;;;;;;;;;;;;;;;;;7365155;19;814;-67
2023/04/26 01:30:13;;;;;;;;;;;;;;;;;;7364058;19;821;-67
2023/04/26 01:32:41;;;;;;;;;;;;;;;;;;7361304;19;1322;-66
2023/04/26 01:35:10;;;;;;;;;;;;;;;;;;7364087;19;819;-66
2023/04/26 01:37:38;;;;;;;;;;;;;;;;;;7362658;19;956;-66
2023/04/26 01:40:08;;;;;;;;;;;;;;;;;;7363407;19;892;-67
2023/04/26 01:42:38;;;;;;;;;;;;;;;;;;7362705;19;1848;-67
2023/04/26 01:45:06;;;;;;;;;;;;;;;;;;7363470;19;826;-67
2023/04/26 01:47:54;;;;;;;;;;;;;;;;;;7363837;19;1152;-67
2023/04/26 01:50:22;;;;;;;;;;;;;;;;;;7362224;19;865;-66
2023/04/26 01:52:50;;;;;;;;;;;;;;;;;;7360703;19;1263;-67
2023/04/26 01:55:20;;;;;;;;;;;;;;;;;;7363695;19;899;-67
2023/04/26 01:57:49;;;;;;;;;;;;;;;;;;7363000;19;897;-66
2023/04/26 02:00:17;;;;;;;;;;;;;;;;;;7366366;19;1307;-65
2023/04/26 02:02:45;;;;;;;;;;;;;;;;;;7361697;19;1845;-65
2023/04/26 02:05:13;;;;;;;;;;;;;;;;;;7364167;19;844;-66
2023/04/26 02:07:41;;;;;;;;;;;;;;;;;;7362063;19;844;-67
2023/04/26 02:10:10;;;;;;;;;;;;;;;;;;7364097;19;964;-66
2023/04/26 02:12:38;;;;;;;;;;;;;;;;;;7361512;19;1282;-67
2023/04/26 02:15:06;;;;;;;;;;;;;;;;;;7362070;19;818;-67
2023/04/26 02:17:36;;;;;;;;;;;;;;;;;;7363713;19;878;-66
2023/04/26 02:20:06;;;;;;;;;;;;;;;;;;7363629;19;814;-67
2023/04/26 02:22:34;;;;;;;;;;;;;;;;;;7361408;19;1860;-67
2023/04/26 02:25:02;;;;;;;;;;;;;;;;;;7362930;19;833;-67
2023/04/26 02:27:31;;;;;;;;;;;;;;;;;;7362832;19;865;-66
2023/04/26 02:29:59;;;;;;;;;;;;;;;;;;7361992;19;881;-67
2023/04/26 02:32:28;;;;;;;;;;;;;;;;;;7362005;19;1250;-66
2023/04/26 02:34:56;;;;;;;;;;;;;;;;;;7361751;19;921;-66
2023/04/26 02:37:25;;;;;;;;;;;;;;;;;;7361535;19;789;-66
2023/04/26 02:39:53;;;;;;;;;;;;;;;;;;7360722;19;917;-66
2023/04/26 02:42:21;;;;;;;;;;;;;;;;;;7359744;19;1863;-67
2023/04/26 02:44:50;;;;;;;;;;;;;;;;;;7362403;19;803;-67
2023/04/26 02:47:18;;;;;;;;;;;;;;;;;;7362220;19;808;-66
2023/04/26 02:49:47;;;;;;;;;;;;;;;;;;7360830;19;807;-67
2023/04/26 02:52:15;;;;;;;;;;;;;;;;;;7360359;19;1358;-67
2023/04/26 02:54:44;;;;;;;;;;;;;;;;;;7363054;19;856;-66
2023/04/26 02:57:12;;;;;;;;;;;;;;;;;;7362262;19;837;-67
2023/04/26 02:59:40;;;;;;;;;;;;;;;;;;7360311;19;820;-67
2023/04/26 03:02:08;;;;;;;;;;;;;;;;;;7360735;19;1966;-67
2023/04/26 03:04:38;;;;;;;;;;;;;;;;;;7361319;19;843;-67
2023/04/26 03:07:06;;;;;;;;;;;;;;;;;;7361829;19;709;-67
2023/04/26 03:09:37;;;;;;;;;;;;;;;;;;7360175;19;782;-65
2023/04/26 03:12:05;;;;;;;;;;;;;;;;;;7367460;19;1376;-67
2023/04/26 03:14:33;;;;;;;;;;;;;;;;;;7368037;19;783;-66
2023/04/26 03:17:02;;;;;;;;;;;;;;;;;;7367172;19;1464;-67
2023/04/26 03:19:31;;;;;;;;;;;;;;;;;;7366753;19;842;-65
2023/04/26 03:22:00;;;;;;;;;;;;;;;;;;7365593;19;1849;-67
2023/04/26 03:24:28;;;;;;;;;;;;;;;;;;7367336;19;803;-67
2023/04/26 03:26:56;;;;;;;;;;;;;;;;;;7366672;19;784;-66
2023/04/26 03:29:25;;;;;;;;;;;;;;;;;;7366820;19;844;-66
2023/04/26 03:31:53;;;;;;;;;;;;;;;;;;7367672;19;1359;-66
2023/04/26 03:34:21;;;;;;;;;;;;;;;;;;7366513;19;811;-67
2023/04/26 03:36:50;;;;;;;;;;;;;;;;;;7368567;19;817;-67
2023/04/26 03:39:18;;;;;;;;;;;;;;;;;;7368374;19;793;-65
2023/04/26 03:41:46;;;;;;;;;;;;;;;;;;7366905;19;1862;-66
2023/04/26 03:44:15;;;;;;;;;;;;;;;;;;7367397;19;906;-66
2023/04/26 03:46:44;;;;;;;;;;;;;;;;;;7367649;19;788;-65
2023/04/26 03:49:12;;;;;;;;;;;;;;;;;;7367209;19;874;-64
2023/04/26 03:51:40;;;;;;;;;;;;;;;;;;7366001;19;1286;-65
2023/04/26 03:54:08;;;;;;;;;;;;;;;;;;7366986;19;842;-66
2023/04/26 03:56:37;;;;;;;;;;;;;;;;;;7367653;19;824;-66
2023/04/26 03:59:05;;;;;;;;;;;;;;;;;;7365271;19;806;-66
2023/04/26 04:01:33;;;;;;;;;;;;;;;;;;7365340;19;1843;-66
2023/04/26 04:04:01;;;;;;;;;;;;;;;;;;7366942;19;855;-66
2023/04/26 04:06:31;;;;;;;;;;;;;;;;;;7365330;19;795;-65
2023/04/26 04:08:59;;;;;;;;;;;;;;;;;;7365061;19;794;-66
2023/04/26 04:11:28;;;;;;;;;;;;;;;;;;7365738;19;1349;-66
2023/04/26 04:13:57;;;;;;;;;;;;;;;;;;7366633;19;794;-65
2023/04/26 04:16:25;;;;;;;;;;;;;;;;;;7365645;19;782;-66
2023/04/26 04:18:53;;;;;;;;;;;;;;;;;;7366339;19;865;-66
2023/04/26 04:21:21;;;;;;;;;;;;;;;;;;7362124;19;1280;-66
2023/04/26 04:23:50;;;;;;;;;;;;;;;;;;7362353;19;1855;-66
2023/04/26 04:26:19;;;;;;;;;;;;;;;;;;7365134;19;991;-66
2023/04/26 04:28:47;;;;;;;;;;;;;;;;;;7365682;19;846;-65
2023/04/26 04:31:16;;;;;;;;;;;;;;;;;;7364858;19;1278;-65
2023/04/26 04:33:44;;;;;;;;;;;;;;;;;;7365176;19;844;-66
2023/04/26 04:36:15;;;;;;;;;;;;;;;;;;7364981;19;794;-66
2023/04/26 04:38:44;;;;;;;;;;;;;;;;;;7365732;19;699;-66
2023/04/26 04:41:13;;;;;;;;;;;;;;;;;;7364499;19;1290;-66
2023/04/26 04:43:41;;;;;;;;;;;;;;;;;;7362344;19;1869;-66
2023/04/26 04:46:09;;;;;;;;;;;;;;;;;;7364251;19;819;-66
2023/04/26 04:48:37;;;;;;;;;;;;;;;;;;7365014;19;832;-65
2023/04/26 04:51:06;;;;;;;;;;;;;;;;;;7364242;19;1362;-65
2023/04/26 04:53:35;;;;;;;;;;;;;;;;;;7364170;19;829;-65
2023/04/26 04:56:03;;;;;;;;;;;;;;;;;;7364712;19;759;-66
2023/04/26 04:58:31;;;;;;;;;;;;;;;;;;7364202;19;802;-66
2023/04/26 05:01:00;;;;;;;;;;;;;;;;;;7364068;19;787;-66
2023/04/26 05:03:32;;;;;;;;;;;;;;;;;;7362415;19;1846;-66
2023/04/26 05:06:01;;;;;;;;;;;;;;;;;;7364622;19;807;-66
2023/04/26 05:08:30;;;;;;;;;;;;;;;;;;7365082;19;916;-66
2023/04/26 05:11:01;;;;;;;;;;;;;;;;;;7363744;19;766;-66
2023/04/26 05:13:29;;;;;;;;;;;;;;;;;;7362234;19;822;-66
2023/04/26 05:15:58;;;;;;;;;;;;;;;;;;7363844;19;787;-66
2023/04/26 05:18:26;;;;;;;;;;;;;;;;;;7364257;19;801;-65
2023/04/26 05:20:54;;;;;;;;;;;;;;;;;;7363971;19;849;-63
2023/04/26 05:23:23;;;;;;;;;;;;;;;;;;7361155;19;1850;-64
2023/04/26 05:25:51;;;;;;;;;;;;;;;;;;7364337;19;850;-65
2023/04/26 05:28:37;;;;;;;;;;;;;;;;;;7369015;19;2024;-65
2023/04/26 05:31:27;;;;;;;;;;;;;;;;;;7367853;19;2023;-66
2023/04/26 05:34:06;;;;;;;;;;;;;;;;;;7362843;19;696;-65
2023/04/26 05:36:41;;;;;;;;;;;;;;;;;;7363832;19;743;-66
2023/04/26 05:39:11;;;;;;;;;;;;;;;;;;7362857;19;851;-65
2023/04/26 05:41:39;;;;;;;;;;;;;;;;;;7362399;19;1405;-65
2023/04/26 05:44:07;;;;;;;;;;;;;;;;;;7361941;19;1853;-63
2023/04/26 05:46:35;;;;;;;;;;;;;;;;;;7363238;19;787;-65
2023/04/26 05:49:03;;;;;;;;;;;;;;;;;;7364184;19;778;-66
2023/04/26 05:51:32;;;;;;;;;;;;;;;;;;7362265;19;1327;-64
2023/04/26 05:54:00;;;;;;;;;;;;;;;;;;7363832;19;797;-64
2023/04/26 05:56:28;;;;;;;;;;;;;;;;;;7362802;19;895;-66
2023/04/26 05:58:57;;;;;;;;;;;;;;;;;;7363936;19;802;-66
2023/04/26 06:01:25;;;;;;;;;;;;;;;;;;7362051;19;1258;-66
2023/04/26 06:03:53;;;;;;;;;;;;;;;;;;7361453;19;1845;-65
2023/04/26 06:06:24;;;;;;;;;;;;;;;;;;7362232;19;800;-64
2023/04/26 06:08:52;;;;;;;;;;;;;;;;;;7361431;19;806;-65
2023/04/26 06:11:20;;;;;;;;;;;;;;;;;;7361771;19;1337;-65
2023/04/26 06:13:49;;;;;;;;;;;;;;;;;;7362568;19;796;-66
2023/04/26 06:16:17;;;;;;;;;;;;;;;;;;7362748;19;759;-66
2023/04/26 06:18:45;;;;;;;;;;;;;;;;;;7361812;19;805;-65
2023/04/26 06:21:13;;;;;;;;;;;;;;;;;;7362582;19;1250;-65
2023/04/26 06:23:42;;;;;;;;;;;;;;;;;;7360045;19;1852;-67
2023/04/26 06:26:10;;;;;;;;;;;;;;;;;;7362316;19;984;-66
2023/04/26 06:28:38;;;;;;;;;;;;;;;;;;7361798;19;872;-66
2023/04/26 06:31:06;;;;;;;;;;;;;;;;;;7361517;19;1311;-65
2023/04/26 06:33:34;;;;;;;;;;;;;;;;;;7362880;19;811;-66
2023/04/26 06:36:02;;;;;;;;;;;;;;;;;;7362078;19;815;-64
2023/04/26 06:38:31;;;;;;;;;;;;;;;;;;7361392;19;815;-65
2023/04/26 06:40:59;;;;;;;;;;;;;;;;;;7361567;19;775;-66
2023/04/26 06:43:27;;;;;;;;;;;;;;;;;;7358927;19;1850;-65
2023/04/26 06:46:01;;;;;;;;;;;;;;;;;;7366665;19;771;-66
2023/04/26 06:48:29;;;;;;;;;;;;;;;;;;7370005;19;865;-65
2023/04/26 06:50:57;;;;;;;;;;;;;;;;;;7368809;19;873;-67
2023/04/26 06:53:25;;;;;;;;;;;;;;;;;;7368206;19;1239;-66
2023/04/26 06:55:56;;;;;;;;;;;;;;;;;;7369677;19;758;-67
2023/04/26 06:58:24;;;;;;;;;;;;;;;;;;7369599;19;770;-67
2023/04/26 07:00:52;;;;;;;;;;;;;;;;;;7369582;19;794;-66
2023/04/26 07:03:20;;;;;;;;;;;;;;;;;;7368202;19;1857;-66
2023/04/26 07:05:48;;;;;;;;;;;;;;;;;;7373073;19;1674;-67
2023/04/26 07:08:17;;;;;;;;;;;;;;;;;;7368558;19;846;-67
2023/04/26 07:10:45;;;;;;;;;;;;;;;;;;7369156;19;825;-67
2023/04/26 07:13:13;;;;;;;;;;;;;;;;;;7366849;19;1263;-67
2023/04/26 07:15:41;;;;;;;;;;;;;;;;;;7368259;19;849;-67
2023/04/26 07:18:09;;;;;;;;;;;;;;;;;;7368941;19;842;-68
2023/04/26 07:20:37;;;;;;;;;;;;;;;;;;7369375;19;857;-68
2023/04/26 07:23:06;;;;;;;;;;;;;;;;;;7366400;19;1850;-68
2023/04/26 07:25:34;;;;;;;;;;;;;;;;;;7368944;19;755;-65
2023/04/26 07:28:02;;;;;;;;;;;;;;;;;;7365925;19;749;-65
2023/04/26 07:30:31;;;;;;;;;;;;;;;;;;7368491;19;787;-65
2023/04/26 07:32:59;;;;;;;;;;;;;;;;;;7366852;19;1294;-67
2023/04/26 07:35:27;;;;;;;;;;;;;;;;;;7369300;19;880;-66
2023/04/26 07:37:55;;;;;;;;;;;;;;;;;;7367856;19;850;-66
2023/04/26 07:40:25;;;;;;;;;;;;;;;;;;7368827;19;783;-66
2023/04/26 07:42:53;;;;;;;;;;;;;;;;;;7366665;19;1846;-66
2023/04/26 07:45:21;;;;;;;;;;;;;;;;;;7367843;19;805;-66
2023/04/26 07:47:49;;;;;;;;;;;;;;;;;;7367974;19;823;-67
2023/04/26 07:50:17;;;;;;;;;;;;;;;;;;7369101;19;807;-66
2023/04/26 07:52:45;;;;;;;;;;;;;;;;;;7367230;19;1416;-68
2023/04/26 07:55:13;;;;;;;;;;;;;;;;;;7369056;19;814;-68
2023/04/26 07:57:42;;;;;;;;;;;;;;;;;;7367628;19;806;-68
2023/04/26 08:00:11;;;;;;;;;;;;;;;;;;7368548;19;796;-68
2023/04/26 08:02:40;;;;;;;;;;;;;;;;;;7366194;19;1845;-68
2023/04/26 08:05:08;;;;;;;;;;;;;;;;;;7367878;19;870;-67
2023/04/26 08:07:37;;;;;;;;;;;;;;;;;;7367266;19;881;-66
2023/04/26 08:10:05;;;;;;;;;;;;;;;;;;7367446;19;826;-68
2023/04/26 08:12:33;;;;;;;;;;;;;;;;;;7366390;19;1355;-68
2023/04/26 08:15:01;;;;;;;;;;;;;;;;;;7368122;19;868;-66
2023/04/26 08:17:30;;;;;;;;;;;;;;;;;;7367868;19;878;-66
2023/04/26 08:19:58;;;;;;;;;;;;;;;;;;7366558;19;831;-66
2023/04/26 08:22:26;;;;;;;;;;;;;;;;;;7365733;19;1290;-67
2023/04/26 08:24:54;;;;;;;;;;;;;;;;;;7365507;19;1842;-67
2023/04/26 08:27:22;;;;;;;;;;;;;;;;;;7367783;19;803;-66
2023/04/26 08:29:50;;;;;;;;;;;;;;;;;;7366645;19;864;-67
2023/04/26 08:32:19;;;;;;;;;;;;;;;;;;7365976;19;1267;-67
2023/04/26 08:34:47;;;;;;;;;;;;;;;;;;7368167;19;770;-67
2023/04/26 08:37:15;;;;;;;;;;;;;;;;;;7367256;19;787;-67
2023/04/26 08:39:44;;;;;;;;;;;;;;;;;;7366872;19;750;-67
2023/04/26 08:42:12;;;;;;;;;;;;;;;;;;7365271;19;1320;-67
2023/04/26 08:44:40;;;;;;;;;;;;;;;;;;7365648;19;1846;-66
2023/04/26 08:47:08;;;;;;;;;;;;;;;;;;7366563;19;868;-65
2023/04/26 08:49:36;;;;;;;;;;;;;;;;;;7366717;19;842;-64
2023/04/26 08:52:04;;;;;;;;;;;;;;;;;;7365872;19;1295;-65
2023/04/26 08:54:32;;;;;;;;;;;;;;;;;;7367075;19;794;-64
2023/04/26 08:57:01;;;;;;;;;;;;;;;;;;7366665;19;814;-65
2023/04/26 08:59:29;;;;;;;;;;;;;;;;;;7366121;19;785;-67
2023/04/26 09:01:59;;;;;;;;;;;;;;;;;;7365199;19;1270;-67
2023/04/26 09:04:27;;;;;;;;;;;;;;;;;;7365488;19;1854;-67
2023/04/26 09:06:55;;;;;;;;;;;;;;;;;;7366002;19;776;-67
2023/04/26 09:09:23;;;;;;;;;;;;;;;;;;7365293;19;830;-68
2023/04/26 09:11:51;;;;;;;;;;;;;;;;;;7364986;19;1304;-67
2023/04/26 09:14:19;;;;;;;;;;;;;;;;;;7366220;19;772;-68
2023/04/26 09:16:47;;;;;;;;;;;;;;;;;;7366685;19;964;-67
2023/04/26 09:19:16;;;;;;;;;;;;;;;;;;7365608;19;870;-67
2023/04/26 09:21:44;;;;;;;;;;;;;;;;;;7365329;19;1295;-68
2023/04/26 09:24:12;;;;;;;;;;;;;;;;;;7365063;19;1847;-67
2023/04/26 09:26:40;;;;;;;;;;;;;;;;;;7366022;19;822;-66
2023/04/26 09:29:09;;;;;;;;;;;;;;;;;;7365748;19;784;-67
2023/04/26 09:31:37;;;;;;;;;;;;;;;;;;7364237;19;1402;-68
2023/04/26 09:34:05;;;;;;;;;;;;;;;;;;7363533;19;770;-68
2023/04/26 09:36:33;;;;;;;;;;;;;;;;;;7362785;19;830;-66
2023/04/26 09:39:02;;;;;;;;;;;;;;;;;;7361907;19;842;-65
2023/04/26 09:41:30;;;;;;;;;;;;;;;;;;7361876;19;1348;-66
2023/04/26 09:43:58;;;;;;;;;;;;;;;;;;7362305;19;1845;-68
2023/04/26 09:46:26;;;;;;;;;;;;;;;;;;7361157;19;816;-67
2023/04/26 09:48:54;;;;;;;;;;;;;;;;;;7361818;19;779;-66
2023/04/26 09:51:22;;;;;;;;;;;;;;;;;;7362513;19;1361;-66
2023/04/26 09:53:51;;;;;;;;;;;;;;;;;;7362698;19;877;-65
2023/04/26 09:56:19;;;;;;;;;;;;;;;;;;7362310;19;770;-69
2023/04/26 09:58:49;;;;;;;;;;;;;;;;;;7362975;19;933;-68
2023/04/26 10:01:17;;;;;;;;;;;;;;;;;;7362418;19;1203;-67
2023/04/26 10:03:45;;;;;;;;;;;;;;;;;;7362145;19;1838;-68
2023/04/26 10:06:13;;;;;;;;;;;;;;;;;;7362027;19;762;-67
2023/04/26 10:08:42;;;;;;;;;;;;;;;;;;7362593;19;798;-70
2023/04/26 10:11:10;;;;;;;;;;;;;;;;;;7361846;19;1274;-68
2023/04/26 10:13:38;;;;;;;;;;;;;;;;;;7363097;19;767;-68
2023/04/26 10:16:06;;;;;;;;;;;;;;;;;;7362834;19;826;-68
2023/04/26 10:18:34;;;;;;;;;;;;;;;;;;7359544;19;799;-67
2023/04/26 10:21:02;;;;;;;;;;;;;;;;;;7360780;19;861;-67
2023/04/26 10:23:32;;;;;;;;;;;;;;;;;;7360956;19;1850;-67
2023/04/26 10:26:00;;;;;;;;;;;;;;;;;;7362545;19;897;-67
2023/04/26 10:28:28;;;;;;;;;;;;;;;;;;7362693;19;784;-67
2023/04/26 10:30:56;;;;;;;;;;;;;;;;;;7235916;19;2708340;-66
2023/04/26 10:33:25;;;;;;;;;;;;;;;;;;7374641;19;1271;-67
2023/04/26 10:35:53;;;;;;;;;;;;;;;;;;7376255;19;803;-67
2023/04/26 10:38:21;;;;;;;;;;;;;;;;;;7374826;19;799;-67
2023/04/26 10:40:49;;;;;;;;;;;;;;;;;;7376209;19;1106;-68
2023/04/26 10:43:18;;;;;;;;;;;;;;;;;;7372825;19;1325;-66
2023/04/26 10:45:46;;;;;;;;;;;;;;;;;;7374923;19;1818;-68
2023/04/26 10:48:16;;;;;;;;;;;;;;;;;;7375773;19;764;-67
2023/04/26 10:50:44;;;;;;;;;;;;;;;;;;7375109;19;769;-67
2023/04/26 10:53:12;;;;;;;;;;;;;;;;;;7371086;19;1180;-66
2023/04/26 10:55:41;;;;;;;;;;;;;;;;;;7373114;19;1116;-67
2023/04/26 10:58:09;;;;;;;;;;;;;;;;;;7371450;19;894;-67
2023/04/26 11:00:37;;;;;;;;;;;;;;;;;;7375094;19;904;-67
2023/04/26 11:03:07;;;;;;;;;;;;;;;;;;7370055;19;1262;-68
2023/04/26 11:05:36;;;;;;;;;;;;;;;;;;7373433;19;1849;-67
2023/04/26 11:08:04;;;;;;;;;;;;;;;;;;7365647;19;810;-67
2023/04/26 11:10:32;;;;;;;;;;;;;;;;;;7366029;19;846;-67
2023/04/26 11:13:00;;;;;;;;;;;;;;;;;;7362259;19;1227;-68
2023/04/26 11:15:28;;;;;;;;;;;;;;;;;;7364282;19;834;-68
2023/04/26 11:17:57;;;;;;;;;;;;;;;;;;7362808;19;816;-67
2023/04/26 11:20:25;;;;;;;;;;;;;;;;;;7362665;19;854;-67
2023/04/26 11:22:53;;;;;;;;;;;;;;;;;;7360169;19;1286;-67
2023/04/26 11:25:21;;;;;;;;;;;;;;;;;;7360412;19;1814;-68
2023/04/26 11:27:49;;;;;;;;;;;;;;;;;;7361718;19;829;-67
2023/04/26 11:30:17;;;;;;;;;;;;;;;;;;7362539;19;854;-67
2023/04/26 11:32:45;;;;;;;;;;;;;;;;;;7367715;19;1376;-69
2023/04/26 11:35:14;;;;;;;;;;;;;;;;;;7369155;19;842;-69
2023/04/26 11:37:42;;;;;;;;;;;;;;;;;;7368337;19;789;-69
2023/04/26 11:40:10;;;;;;;;;;;;;;;;;;7369231;19;806;-67
2023/04/26 11:42:38;;;;;;;;;;;;;;;;;;7367719;19;1332;-67
2023/04/26 11:45:07;;;;;;;;;;;;;;;;;;7367646;19;1829;-67
2023/04/26 11:47:35;;;;;;;;;;;;;;;;;;7368723;19;938;-67
2023/04/26 11:50:03;;;;;;;;;;;;;;;;;;7368589;19;748;-66
2023/04/26 11:52:32;;;;;;;;;;;;;;;;;;7367019;19;1316;-66
2023/04/26 11:55:00;;;;;;;;;;;;;;;;;;7369392;19;771;-67
2023/04/26 11:57:28;;;;;;;;;;;;;;;;;;7368400;19;913;-67
2023/04/26 11:59:56;;;;;;;;;;;;;;;;;;7368445;19;863;-66
2023/04/26 12:02:24;;;;;;;;;;;;;;;;;;7370424;19;1392;-66
2023/04/26 12:04:53;;;;;;;;;;;;;;;;;;7367892;19;1881;-67
2023/04/26 12:07:21;;;;;;;;;;;;;;;;;;7368366;19;857;-66
2023/04/26 12:09:49;;;;;;;;;;;;;;;;;;7367643;19;843;-68
2023/04/26 12:12:17;;;;;;;;;;;;;;;;;;7366575;19;1330;-69
2023/04/26 12:14:46;;;;;;;;;;;;;;;;;;7368352;19;762;-67
2023/04/26 12:17:14;;;;;;;;;;;;;;;;;;7367579;19;873;-65
2023/04/26 12:19:42;;;;;;;;;;;;;;;;;;7366830;19;821;-66
2023/04/26 12:22:11;;;;;;;;;;;;;;;;;;7366925;19;1337;-66
2023/04/26 12:24:41;;;;;;;;;;;;;;;;;;7367321;19;1842;-66
2023/04/26 12:27:10;;;;;;;;;;;;;;;;;;7367710;19;740;-65
2023/04/26 12:29:38;;;;;;;;;;;;;;;;;;7366974;19;903;-69
2023/04/26 12:32:06;;;;;;;;;;;;;;;;;;7366989;19;1246;-68
2023/04/26 12:34:34;;;;;;;;;;;;;;;;;;7368177;19;846;-68
2023/04/26 12:37:02;;;;;;;;;;;;;;;;;;7367666;19;841;-66
2023/04/26 12:39:30;;;;;;;;;;;;;;;;;;7366425;19;833;-68
2023/04/26 12:41:59;;;;;;;;;;;;;;;;;;7364844;19;1282;-67
2023/04/26 12:44:27;;;;;;;;;;;;;;;;;;7365043;19;1837;-67
2023/04/26 12:46:55;;;;;;;;;;;;;;;;;;7367151;19;838;-67
2023/04/26 12:49:23;;;;;;;;;;;;;;;;;;7366276;19;849;-68
2023/04/26 12:51:52;;;;;;;;;;;;;;;;;;7365757;19;1274;-67
2023/04/26 12:54:20;;;;;;;;;;;;;;;;;;7367436;19;984;-68
2023/04/26 12:56:48;;;;;;;;;;;;;;;;;;7366117;19;836;-67
2023/04/26 12:59:16;;;;;;;;;;;;;;;;;;7365997;19;794;-68
2023/04/26 13:01:44;;;;;;;;;;;;;;;;;;7364053;19;1310;-67
2023/04/26 13:04:13;;;;;;;;;;;;;;;;;;7366524;19;1846;-67
2023/04/26 13:06:41;;;;;;;;;;;;;;;;;;7366684;19;801;-67
2023/04/26 13:09:12;;;;;;;;;;;;;;;;;;7364922;19;881;-66
2023/04/26 13:11:40;;;;;;;;;;;;;;;;;;7365498;19;1317;-66
2023/04/26 13:14:08;;;;;;;;;;;;;;;;;;7365984;19;739;-67
2023/04/26 13:16:41;;;;;;;;;;;;;;;;;;7366105;19;873;-66
2023/04/26 13:19:09;;;;;;;;;;;;;;;;;;7365331;19;781;-67
2023/04/26 13:21:37;;;;;;;;;;;;;;;;;;7365024;19;1281;-67
2023/04/26 13:24:05;;;;;;;;;;;;;;;;;;7365606;19;800;-67
2023/04/26 13:26:33;;;;;;;;;;;;;;;;;;7362635;19;1867;-67
2023/04/26 13:29:03;;;;;;;;;;;;;;;;;;7363064;19;806;-66
2023/04/26 13:31:31;;;;;;;;;;;;;;;;;;7364994;19;1310;-66
2023/04/26 13:33:59;;;;;;;;;;;;;;;;;;7365374;19;886;-67
2023/04/26 13:36:28;;;;;;;;;;;;;;;;;;7365541;19;808;-69
2023/04/26 13:38:56;;;;;;;;;;;;;;;;;;7364561;19;869;-68
2023/04/26 13:41:24;;;;;;;;;;;;;;;;;;7365617;19;1285;-68
2023/04/26 13:43:52;;;;;;;;;;;;;;;;;;7366028;19;823;-65
2023/04/26 13:46:21;;;;;;;;;;;;;;;;;;7363227;19;1849;-68
2023/04/26 13:48:49;;;;;;;;;;;;;;;;;;7363721;19;839;-68
2023/04/26 13:51:17;;;;;;;;;;;;;;;;;;7364754;19;1247;-69
2023/04/26 13:53:45;;;;;;;;;;;;;;;;;;7364200;19;781;-69
2023/04/26 13:56:14;;;;;;;;;;;;;;;;;;7363536;19;861;-68
2023/04/26 13:58:42;;;;;;;;;;;;;;;;;;7363732;19;762;-68
2023/04/26 14:01:10;;;;;;;;;;;;;;;;;;7364703;19;1286;-68
2023/04/26 14:03:38;;;;;;;;;;;;;;;;;;7364495;19;870;-69
2023/04/26 14:06:06;;;;;;;;;;;;;;;;;;7362501;19;1857;-69
2023/04/26 14:08:35;;;;;;;;;;;;;;;;;;7363856;19;845;-69
2023/04/26 14:11:03;;;;;;;;;;;;;;;;;;7364102;19;771;-68
2023/04/26 14:13:31;;;;;;;;;;;;;;;;;;7361098;19;1310;-68
2023/04/26 14:15:59;;;;;;;;;;;;;;;;;;7364256;19;809;-69
2023/04/26 14:18:27;;;;;;;;;;;;;;;;;;7363814;19;875;-66
2023/04/26 14:20:55;;;;;;;;;;;;;;;;;;7363820;19;789;-67
2023/04/26 14:23:23;;;;;;;;;;;;;;;;;;7362074;19;1343;-68
2023/04/26 14:25:52;;;;;;;;;;;;;;;;;;7362388;19;1841;-68
2023/04/26 14:28:20;;;;;;;;;;;;;;;;;;7363214;19;841;-68
2023/04/26 14:30:48;;;;;;;;;;;;;;;;;;7363798;19;843;-69
2023/04/26 14:33:16;;;;;;;;;;;;;;;;;;7361208;19;1277;-68
2023/04/26 14:35:45;;;;;;;;;;;;;;;;;;7362327;19;741;-68
2023/04/26 14:38:13;;;;;;;;;;;;;;;;;;7363506;19;790;-69
2023/04/26 14:40:41;;;;;;;;;;;;;;;;;;7363448;19;816;-69
2023/04/26 14:43:09;;;;;;;;;;;;;;;;;;7361297;19;1278;-68
2023/04/26 14:45:37;;;;;;;;;;;;;;;;;;7362657;19;1846;-68
2023/04/26 14:48:05;;;;;;;;;;;;;;;;;;7362735;19;810;-69
2023/04/26 14:50:34;;;;;;;;;;;;;;;;;;7363641;19;757;-70
2023/04/26 14:53:02;;;;;;;;;;;;;;;;;;7360674;19;1278;-69
2023/04/26 14:55:30;;;;;;;;;;;;;;;;;;7362782;19;871;-69
2023/04/26 14:57:58;;;;;;;;;;;;;;;;;;7361860;19;869;-69
2023/04/26 15:00:26;;;;;;;;;;;;;;;;;;7363165;19;806;-68
2023/04/26 15:02:54;;;;;;;;;;;;;;;;;;7361127;19;1286;-67
2023/04/26 15:05:23;;;;;;;;;;;;;;;;;;7362924;19;1849;-68
2023/04/26 15:07:51;;;;;;;;;;;;;;;;;;7368501;19;714;-67
2023/04/26 15:10:19;;;;;;;;;;;;;;;;;;7368816;19;805;-68
2023/04/26 15:12:47;;;;;;;;;;;;;;;;;;7367999;19;1693;-69
2023/04/26 15:15:15;;;;;;;;;;;;;;;;;;7369544;19;804;-67
2023/04/26 15:17:43;;;;;;;;;;;;;;;;;;7368923;19;866;-68
2023/04/26 15:20:12;;;;;;;;;;;;;;;;;;7369971;19;1755;-69
2023/04/26 15:22:40;;;;;;;;;;;;;;;;;;7368443;19;1266;-70
2023/04/26 15:25:08;;;;;;;;;;;;;;;;;;7369216;19;1834;-69
2023/04/26 15:27:36;;;;;;;;;;;;;;;;;;7368285;19;803;-69
2023/04/26 15:30:05;;;;;;;;;;;;;;;;;;7367762;19;771;-69
2023/04/26 15:32:33;;;;;;;;;;;;;;;;;;7367565;19;1281;-68
2023/04/26 15:35:01;;;;;;;;;;;;;;;;;;7369052;19;793;-68
2023/04/26 15:37:29;;;;;;;;;;;;;;;;;;7368854;19;900;-70
2023/04/26 15:39:57;;;;;;;;;;;;;;;;;;7367756;19;813;-67
2023/04/26 15:42:25;;;;;;;;;;;;;;;;;;7367211;19;1333;-67
2023/04/26 15:44:54;;;;;;;;;;;;;;;;;;7368697;19;821;-67
2023/04/26 15:47:22;;;;;;;;;;;;;;;;;;7366157;19;1844;-68
2023/04/26 15:49:50;;;;;;;;;;;;;;;;;;7367949;19;797;-68
2023/04/26 15:52:18;;;;;;;;;;;;;;;;;;7365670;19;1352;-68
2023/04/26 15:54:46;;;;;;;;;;;;;;;;;;7368413;19;881;-69
2023/04/26 15:57:14;;;;;;;;;;;;;;;;;;7367858;19;1094;-68
2023/04/26 15:59:42;;;;;;;;;;;;;;;;;;7365670;19;846;-68
2023/04/26 16:02:11;;;;;;;;;;;;;;;;;;7366649;19;1276;-68
2023/04/26 16:04:39;;;;;;;;;;;;;;;;;;7367782;19;813;-69
2023/04/26 16:07:07;;;;;;;;;;;;;;;;;;7366403;19;1842;-68
2023/04/26 16:09:36;;;;;;;;;;;;;;;;;;7367839;19;798;-69
2023/04/26 16:12:04;;;;;;;;;;;;;;;;;;7367334;19;1246;-69
2023/04/26 16:14:32;;;;;;;;;;;;;;;;;;7367666;19;810;-68
2023/04/26 16:17:03;;;;;;;;;;;;;;;;;;7366676;19;870;-68
2023/04/26 16:19:31;;;;;;;;;;;;;;;;;;7366893;19;757;-69
2023/04/26 16:21:59;;;;;;;;;;;;;;;;;;7366136;19;1704;-69
2023/04/26 16:24:27;;;;;;;;;;;;;;;;;;7367881;19;964;-69
2023/04/26 16:26:56;;;;;;;;;;;;;;;;;;7365611;19;1837;-68
2023/04/26 16:29:24;;;;;;;;;;;;;;;;;;7366291;19;783;-67
2023/04/26 16:31:52;;;;;;;;;;;;;;;;;;7366612;19;1284;-70
2023/04/26 16:34:20;;;;;;;;;;;;;;;;;;7367603;19;780;-68
2023/04/26 16:36:48;;;;;;;;;;;;;;;;;;7367242;19;797;-68
2023/04/26 16:39:18;;;;;;;;;;;;;;;;;;7366415;19;1032;-68
2023/04/26 16:41:46;;;;;;;;;;;;;;;;;;7367555;19;1262;-68
2023/04/26 16:44:14;;;;;;;;;;;;;;;;;;7367704;19;813;-67
2023/04/26 16:46:42;;;;;;;;;;;;;;;;;;7366203;19;1843;-69
2023/04/26 16:49:11;;;;;;;;;;;;;;;;;;7367245;19;865;-66
2023/04/26 16:51:40;;;;;;;;;;;;;;;;;;7366894;19;1313;-67
2023/04/26 16:54:09;;;;;;;;;;;;;;;;;;7367404;19;884;-67
2023/04/26 16:56:37;;;;;;;;;;;;;;;;;;7367826;19;719;-67
2023/04/26 16:59:05;;;;;;;;;;;;;;;;;;7365593;19;787;-68
2023/04/26 17:01:33;;;;;;;;;;;;;;;;;;7365854;19;1330;-68
2023/04/26 17:04:01;;;;;;;;;;;;;;;;;;7366495;19;801;-68
2023/04/26 17:06:30;;;;;;;;;;;;;;;;;;7365671;19;1854;-68
2023/04/26 17:08:58;;;;;;;;;;;;;;;;;;7364748;19;798;-68
2023/04/26 17:11:27;;;;;;;;;;;;;;;;;;7365404;19;1266;-65
2023/04/26 17:13:55;;;;;;;;;;;;;;;;;;7365505;19;751;-67
2023/04/26 17:16:23;;;;;;;;;;;;;;;;;;7366183;19;2005;-67
2023/04/26 17:18:51;;;;;;;;;;;;;;;;;;7368201;19;1540;-67
2023/04/26 17:21:19;;;;;;;;;;;;;;;;;;7365681;19;1270;-67
2023/04/26 17:23:47;;;;;;;;;;;;;;;;;;7365934;19;909;-67